VTPP

Details ICAO VTPP (PHS)
Name Phitsanulok
Region Thailand
Timezone Asia/Bangkok (UTC+7.0)
Plans Departing 21
Arriving 25
Stats Elevation 145 ft / 44 m (AMSL)
Location 16.782939° 100.279122°
Runways 1
Magnetic Variation 0.714° W
Sunrise 2017-12-15 23:41:49 UTC / 2017-12-16 06:41:49 Local
Sunset 2017-12-16 10:49:43 UTC / 2017-12-16 17:49:43 Local
Advertisement - Login to hide

Runways

ID Width Length Bearing (true) Bearing (mag) Surface Threshold Offset Overrun Length
14 148 ft / 45 m 9,871 ft / 3,009 m 144.06° 144.77° Asphalt 0 ft / 0 m 0 ft / 0 m
32 148 ft / 45 m 9,871 ft / 3,009 m 324.06° 324.77° Asphalt 0 ft / 0 m 0 ft / 0 m

Approach Navaids

Runway Type Ident Frequency Range Bearing (true) Bearing (mag) Slope Elevation
32 Localiser IPSL 110.10 MHz 18 nm / 33 km 324.05° 324.77° - 159 ft / 48 m (AMSL)
32 Glidescope IPSL 110.10 MHz 10 nm / 19 km 324.06° 324.77° 3.00° 145 ft / 44 m (AMSL)
32 DME IPSL 110.10 MHz 18 nm / 33 km - - - 145 ft / 44 m (AMSL)

Map

Weather


0- 5 10 15 20 25 30 35+ Temperature / ° C

Clouds and Precipitation
Forecast for 2017-12-15 18:00 UTC. Updated an hour ago

Ground ~20,000 ft ~40,000 ft Winds

METAR

Not found

TAF

TAF VTPP 151700Z 1518/1618 08005KT 8000 FEW030 BECMG 1523/1601 5000 BR BECMG 1602/1604 8000 NSW

Frequencies

Ground 121.90 MHz GND
Approach 120.70 MHz APP
Tower 118.90 MHz TWR
Warning: Do not use this data for real-world aviation or navigation. No guarantee of current accuracy is given.